Decoded Metar for LFMP (Perpignan in FRANCE) (IATA:PGF) | Meteo·Mobile Aviation Weather
aviador You're here:

LFMP Decoded Metar

Perpignan in FRANCE
Report Time2020-02-23 11:30:00
UTC Time2020-02-23 11:42:44
Flight Rules vfr VFR
WindVRB at 02 kt
Visibility9999 m
Phenomena:N/A
Clouds:N/A
Expected CloudBase > 6,400 ft AGL from Temp-Dew spread
CeilingNone
Temp22°C (ISA +7)
Dew Point06°C (36% RH)
AAT20.4°C
QNH1031 hPa
Density Alt538 ft
Elevation157 ft
Report Wrong Elevation
Raw Report
LFMP 231130Z AUTO VRB02KT CAVOK 22/06 Q1031 NOSIG=

Extra information for LFMP:More info

Metar Taf Metar & Taf Last 4 Metars F.Rules Stats Wind Profile Meteogram Temp Stats Airport Information Weather charts Add Link Nearby VenuesMetar ALERT Operation Metar Decoded Social comments